sensor_id;sensor_type;location;lat;lon;timestamp;pressure;altitude;pressure_sealevel;temperature;humidity
36192;BME280;22233;42.708;23.360;2023-02-13T00:02:25;97166.19;;;1.23;76.37
36192;BME280;22233;42.708;23.360;2023-02-13T00:04:50;97169.22;;;1.46;75.17
36192;BME280;22233;42.708;23.360;2023-02-13T00:07:16;97160.16;;;1.40;74.65
36192;BME280;22233;42.708;23.360;2023-02-13T00:09:41;97163.97;;;1.65;74.01
36192;BME280;22233;42.708;23.360;2023-02-13T00:12:07;97146.84;;;1.72;72.32
36192;BME280;22233;42.708;23.360;2023-02-13T00:14:34;97162.16;;;1.58;72.64
36192;BME280;22233;42.708;23.360;2023-02-13T00:17:00;97169.50;;;1.76;72.59
36192;BME280;22233;42.708;23.360;2023-02-13T00:19:25;97177.72;;;1.82;72.79
36192;BME280;22233;42.708;23.360;2023-02-13T00:21:51;97178.09;;;1.92;71.59
36192;BME280;22233;42.708;23.360;2023-02-13T00:24:16;97170.84;;;1.92;71.26
36192;BME280;22233;42.708;23.360;2023-02-13T00:26:42;97173.22;;;1.69;72.60
36192;BME280;22233;42.708;23.360;2023-02-13T00:29:07;97176.47;;;1.84;72.37
36192;BME280;22233;42.708;23.360;2023-02-13T00:31:32;97170.28;;;1.84;71.14
36192;BME280;22233;42.708;23.360;2023-02-13T00:33:58;97173.59;;;1.79;71.98
36192;BME280;22233;42.708;23.360;2023-02-13T00:36:23;97159.53;;;1.90;71.33
36192;BME280;22233;42.708;23.360;2023-02-13T00:38:49;97176.41;;;1.97;71.00
36192;BME280;22233;42.708;23.360;2023-02-13T00:41:15;97175.16;;;2.32;70.41
36192;BME280;22233;42.708;23.360;2023-02-13T00:43:42;97161.88;;;2.12;69.93
36192;BME280;22233;42.708;23.360;2023-02-13T00:46:08;97181.78;;;1.97;70.54
36192;BME280;22233;42.708;23.360;2023-02-13T00:48:34;97150.94;;;1.75;70.01
36192;BME280;22233;42.708;23.360;2023-02-13T00:51:00;97168.97;;;1.61;72.28
36192;BME280;22233;42.708;23.360;2023-02-13T00:53:26;97172.72;;;1.92;70.66
36192;BME280;22233;42.708;23.360;2023-02-13T00:55:52;97174.41;;;1.86;69.69
36192;BME280;22233;42.708;23.360;2023-02-13T00:58:18;97190.97;;;1.70;70.96
36192;BME280;22233;42.708;23.360;2023-02-13T01:00:44;97180.91;;;2.04;69.94
36192;BME280;22233;42.708;23.360;2023-02-13T01:03:12;97189.19;;;2.27;68.09
36192;BME280;22233;42.708;23.360;2023-02-13T01:05:37;97189.69;;;2.17;67.33
36192;BME280;22233;42.708;23.360;2023-02-13T01:08:03;97188.16;;;1.96;67.13
36192;BME280;22233;42.708;23.360;2023-02-13T01:10:28;97183.22;;;1.93;66.20
36192;BME280;22233;42.708;23.360;2023-02-13T01:12:53;97192.50;;;1.91;66.18
36192;BME280;22233;42.708;23.360;2023-02-13T01:15:19;97181.88;;;1.71;66.34
36192;BME280;22233;42.708;23.360;2023-02-13T01:17:45;97189.38;;;1.55;66.85
36192;BME280;22233;42.708;23.360;2023-02-13T01:20:11;97184.84;;;1.56;66.76
36192;BME280;22233;42.708;23.360;2023-02-13T01:22:37;97194.38;;;1.45;67.42
36192;BME280;22233;42.708;23.360;2023-02-13T01:25:04;97170.03;;;1.47;66.71
36192;BME280;22233;42.708;23.360;2023-02-13T01:27:30;97196.66;;;1.35;67.74
36192;BME280;22233;42.708;23.360;2023-02-13T01:29:56;97205.44;;;1.49;66.89
36192;BME280;22233;42.708;23.360;2023-02-13T01:32:22;97191.44;;;1.47;66.13
36192;BME280;22233;42.708;23.360;2023-02-13T01:34:47;97187.16;;;1.46;66.23
36192;BME280;22233;42.708;23.360;2023-02-13T01:37:13;97200.66;;;1.64;65.72
36192;BME280;22233;42.708;23.360;2023-02-13T01:39:38;97187.78;;;1.41;67.18
36192;BME280;22233;42.708;23.360;2023-02-13T01:42:08;97194.13;;;1.53;65.73
36192;BME280;22233;42.708;23.360;2023-02-13T01:44:51;97204.59;;;1.55;66.32
36192;BME280;22233;42.708;23.360;2023-02-13T01:47:38;97197.28;;;1.37;66.82
36192;BME280;22233;42.708;23.360;2023-02-13T01:52:32;97208.13;;;1.49;67.95
36192;BME280;22233;42.708;23.360;2023-02-13T01:54:58;97212.50;;;1.43;67.34
36192;BME280;22233;42.708;23.360;2023-02-13T01:57:25;97210.81;;;1.55;67.05
36192;BME280;22233;42.708;23.360;2023-02-13T01:59:56;97213.66;;;1.60;66.71
36192;BME280;22233;42.708;23.360;2023-02-13T02:02:23;97193.88;;;1.62;66.46
36192;BME280;22233;42.708;23.360;2023-02-13T02:04:49;97207.28;;;1.62;67.65
36192;BME280;22233;42.708;23.360;2023-02-13T02:07:22;97198.22;;;1.56;67.93
36192;BME280;22233;42.708;23.360;2023-02-13T02:09:48;97205.22;;;1.57;68.28
36192;BME280;22233;42.708;23.360;2023-02-13T02:14:54;97183.81;;;1.50;69.66
36192;BME280;22233;42.708;23.360;2023-02-13T02:17:23;97201.34;;;1.46;69.57
36192;BME280;22233;42.708;23.360;2023-02-13T02:28:16;97201.56;;;1.51;70.87
36192;BME280;22233;42.708;23.360;2023-02-13T02:33:37;97206.63;;;1.66;70.06
36192;BME280;22233;42.708;23.360;2023-02-13T02:39:24;97202.28;;;1.07;71.88
36192;BME280;22233;42.708;23.360;2023-02-13T02:41:56;97220.00;;;0.81;73.89
36192;BME280;22233;42.708;23.360;2023-02-13T02:44:42;97232.53;;;1.07;73.36
36192;BME280;22233;42.708;23.360;2023-02-13T02:47:20;97222.06;;;0.86;74.32
36192;BME280;22233;42.708;23.360;2023-02-13T02:50:12;97230.66;;;1.28;71.44
36192;BME280;22233;42.708;23.360;2023-02-13T02:52:42;97237.03;;;1.27;69.48
36192;BME280;22233;42.708;23.360;2023-02-13T03:01:10;97224.31;;;1.02;66.48
36192;BME280;22233;42.708;23.360;2023-02-13T03:03:56;97235.03;;;0.89;67.70
36192;BME280;22233;42.708;23.360;2023-02-13T03:06:54;97227.22;;;0.81;67.63
36192;BME280;22233;42.708;23.360;2023-02-13T03:09:36;97218.34;;;0.80;67.35
36192;BME280;22233;42.708;23.360;2023-02-13T03:12:23;97227.81;;;0.96;66.85
36192;BME280;22233;42.708;23.360;2023-02-13T03:15:08;97233.78;;;0.91;67.27
36192;BME280;22233;42.708;23.360;2023-02-13T03:17:34;97236.25;;;0.66;68.50
36192;BME280;22233;42.708;23.360;2023-02-13T03:23:14;97220.00;;;0.61;68.46
36192;BME280;22233;42.708;23.360;2023-02-13T03:31:37;97243.03;;;1.02;66.74
36192;BME280;22233;42.708;23.360;2023-02-13T03:34:10;97224.31;;;0.82;66.83
36192;BME280;22233;42.708;23.360;2023-02-13T03:40:52;97233.97;;;1.10;66.86
36192;BME280;22233;42.708;23.360;2023-02-13T03:42:53;97221.22;;;0.92;66.67
36192;BME280;22233;42.708;23.360;2023-02-13T03:45:22;97235.84;;;0.96;66.98
36192;BME280;22233;42.708;23.360;2023-02-13T03:48:10;97229.69;;;0.89;67.08
36192;BME280;22233;42.708;23.360;2023-02-13T03:50:59;97240.56;;;1.00;67.30
36192;BME280;22233;42.708;23.360;2023-02-13T03:53:27;97243.84;;;1.03;66.77
36192;BME280;22233;42.708;23.360;2023-02-13T03:55:57;97237.91;;;1.07;66.39
36192;BME280;22233;42.708;23.360;2023-02-13T03:58:47;97250.47;;;1.07;66.01
36192;BME280;22233;42.708;23.360;2023-02-13T04:01:35;97234.38;;;1.00;66.52
36192;BME280;22233;42.708;23.360;2023-02-13T04:04:14;97234.59;;;1.05;65.95
36192;BME280;22233;42.708;23.360;2023-02-13T04:06:49;97240.97;;;1.04;65.80
36192;BME280;22233;42.708;23.360;2023-02-13T04:09:16;97240.56;;;1.14;65.06
36192;BME280;22233;42.708;23.360;2023-02-13T04:14:35;97226.56;;;0.92;66.43
36192;BME280;22233;42.708;23.360;2023-02-13T04:17:09;97224.34;;;0.89;66.21
36192;BME280;22233;42.708;23.360;2023-02-13T04:19:36;97234.41;;;0.93;66.26
36192;BME280;22233;42.708;23.360;2023-02-13T04:22:02;97239.34;;;0.90;65.95
36192;BME280;22233;42.708;23.360;2023-02-13T04:24:28;97253.34;;;1.05;65.47
36192;BME280;22233;42.708;23.360;2023-02-13T04:26:54;97251.69;;;0.91;65.21
36192;BME280;22233;42.708;23.360;2023-02-13T04:29:22;97246.97;;;0.79;65.77
36192;BME280;22233;42.708;23.360;2023-02-13T04:31:48;97232.97;;;0.91;64.99
36192;BME280;22233;42.708;23.360;2023-02-13T04:34:13;97241.81;;;0.65;66.55
36192;BME280;22233;42.708;23.360;2023-02-13T04:36:38;97240.56;;;0.47;66.90
36192;BME280;22233;42.708;23.360;2023-02-13T04:39:04;97235.00;;;0.55;66.60
36192;BME280;22233;42.708;23.360;2023-02-13T04:41:29;97234.00;;;0.56;66.02
36192;BME280;22233;42.708;23.360;2023-02-13T04:43:55;97248.78;;;0.72;66.60
36192;BME280;22233;42.708;23.360;2023-02-13T04:46:20;97243.25;;;0.74;66.73
36192;BME280;22233;42.708;23.360;2023-02-13T04:48:46;97236.88;;;0.55;66.87
36192;BME280;22233;42.708;23.360;2023-02-13T04:51:11;97262.59;;;0.69;66.06
36192;BME280;22233;42.708;23.360;2023-02-13T04:53:37;97255.00;;;0.73;66.05
36192;BME280;22233;42.708;23.360;2023-02-13T04:56:02;97265.69;;;0.79;65.82
36192;BME280;22233;42.708;23.360;2023-02-13T04:58:28;97268.16;;;0.54;66.33
36192;BME280;22233;42.708;23.360;2023-02-13T05:00:54;97247.78;;;0.47;66.72
36192;BME280;22233;42.708;23.360;2023-02-13T05:03:19;97258.25;;;0.68;66.79
36192;BME280;22233;42.708;23.360;2023-02-13T05:05:45;97256.34;;;-0.33;69.49
36192;BME280;22233;42.708;23.360;2023-02-13T05:08:10;97275.22;;;0.14;68.37
36192;BME280;22233;42.708;23.360;2023-02-13T05:10:36;97271.94;;;0.12;68.43
36192;BME280;22233;42.708;23.360;2023-02-13T05:13:02;97276.19;;;-0.14;69.23
36192;BME280;22233;42.708;23.360;2023-02-13T05:15:27;97263.84;;;-0.15;70.24
36192;BME280;22233;42.708;23.360;2023-02-13T05:17:53;97271.91;;;-0.02;69.58
36192;BME280;22233;42.708;23.360;2023-02-13T05:20:18;97284.03;;;-0.06;69.61
36192;BME280;22233;42.708;23.360;2023-02-13T05:22:49;97278.50;;;0.03;69.14
36192;BME280;22233;42.708;23.360;2023-02-13T05:25:34;97270.41;;;-0.17;69.33
36192;BME280;22233;42.708;23.360;2023-02-13T05:28:00;97274.72;;;-0.58;70.88
36192;BME280;22233;42.708;23.360;2023-02-13T05:30:26;97288.50;;;-0.13;69.38
36192;BME280;22233;42.708;23.360;2023-02-13T05:32:52;97283.94;;;-0.26;70.01
36192;BME280;22233;42.708;23.360;2023-02-13T05:35:20;97277.81;;;-0.06;69.61
36192;BME280;22233;42.708;23.360;2023-02-13T05:37:45;97291.69;;;0.11;69.76
36192;BME280;22233;42.708;23.360;2023-02-13T05:40:11;97297.31;;;-0.19;70.25
36192;BME280;22233;42.708;23.360;2023-02-13T05:42:38;97296.41;;;0.09;69.07
36192;BME280;22233;42.708;23.360;2023-02-13T05:45:03;97254.84;;;-0.01;69.20
36192;BME280;22233;42.708;23.360;2023-02-13T05:47:29;97297.53;;;0.34;68.73
36192;BME280;22233;42.708;23.360;2023-02-13T05:49:54;97298.34;;;0.42;67.85
36192;BME280;22233;42.708;23.360;2023-02-13T05:52:20;97295.66;;;0.48;68.00
36192;BME280;22233;42.708;23.360;2023-02-13T05:54:45;97301.69;;;0.57;68.30
36192;BME280;22233;42.708;23.360;2023-02-13T05:57:10;97282.50;;;0.33;68.09
36192;BME280;22233;42.708;23.360;2023-02-13T05:59:36;97288.09;;;0.58;69.44
36192;BME280;22233;42.708;23.360;2023-02-13T06:02:01;97283.31;;;1.60;72.82
36192;BME280;22233;42.708;23.360;2023-02-13T06:04:27;97286.84;;;2.19;65.06
36192;BME280;22233;42.708;23.360;2023-02-13T06:06:52;97297.31;;;2.28;65.20
36192;BME280;22233;42.708;23.360;2023-02-13T06:09:17;97306.81;;;2.17;64.92
36192;BME280;22233;42.708;23.360;2023-02-13T06:11:43;97310.34;;;2.11;64.45
36192;BME280;22233;42.708;23.360;2023-02-13T06:14:10;97307.88;;;2.09;63.90
36192;BME280;22233;42.708;23.360;2023-02-13T06:16:35;97306.53;;;1.87;65.07
36192;BME280;22233;42.708;23.360;2023-02-13T06:19:01;97293.97;;;1.80;64.71
36192;BME280;22233;42.708;23.360;2023-02-13T06:21:27;97312.38;;;2.22;74.15
36192;BME280;22233;42.708;23.360;2023-02-13T06:23:52;97303.63;;;1.95;66.19
36192;BME280;22233;42.708;23.360;2023-02-13T06:26:17;97322.78;;;1.98;66.10
36192;BME280;22233;42.708;23.360;2023-02-13T06:28:43;97311.94;;;1.73;66.01
36192;BME280;22233;42.708;23.360;2023-02-13T06:31:08;97297.25;;;1.83;66.31
36192;BME280;22233;42.708;23.360;2023-02-13T06:33:34;97313.50;;;1.94;65.32
36192;BME280;22233;42.708;23.360;2023-02-13T06:35:59;97311.72;;;1.75;66.25
36192;BME280;22233;42.708;23.360;2023-02-13T06:38:25;97306.72;;;1.92;66.54
36192;BME280;22233;42.708;23.360;2023-02-13T06:40:50;97322.38;;;1.95;66.98
36192;BME280;22233;42.708;23.360;2023-02-13T06:43:16;97322.00;;;1.91;65.90
36192;BME280;22233;42.708;23.360;2023-02-13T06:45:42;97317.97;;;1.35;67.21
36192;BME280;22233;42.708;23.360;2023-02-13T06:50:34;97283.31;;;1.60;67.48
36192;BME280;22233;42.708;23.360;2023-02-13T06:53:00;97308.88;;;1.50;67.97
36192;BME280;22233;42.708;23.360;2023-02-13T06:55:26;97328.84;;;1.60;69.05
36192;BME280;22233;42.708;23.360;2023-02-13T06:57:52;97314.63;;;1.67;68.22
36192;BME280;22233;42.708;23.360;2023-02-13T07:00:18;97315.00;;;1.77;67.20
36192;BME280;22233;42.708;23.360;2023-02-13T07:02:45;97306.56;;;1.67;68.32
36192;BME280;22233;42.708;23.360;2023-02-13T07:05:11;97319.34;;;1.65;67.78
36192;BME280;22233;42.708;23.360;2023-02-13T07:07:38;97298.97;;;1.64;67.79
36192;BME280;22233;42.708;23.360;2023-02-13T07:10:06;97316.78;;;2.87;73.97
36192;BME280;22233;42.708;23.360;2023-02-13T07:12:32;97314.16;;;2.73;67.94
36192;BME280;22233;42.708;23.360;2023-02-13T07:14:58;97309.16;;;2.52;66.38
36192;BME280;22233;42.708;23.360;2023-02-13T07:17:23;97314.31;;;2.47;65.33
36192;BME280;22233;42.708;23.360;2023-02-13T07:19:51;97320.28;;;2.49;65.61
36192;BME280;22233;42.708;23.360;2023-02-13T07:22:17;97318.66;;;2.48;65.79
36192;BME280;22233;42.708;23.360;2023-02-13T07:24:42;97314.53;;;2.52;66.37
36192;BME280;22233;42.708;23.360;2023-02-13T07:27:08;97334.97;;;2.46;65.95
36192;BME280;22233;42.708;23.360;2023-02-13T07:29:33;97328.22;;;2.30;66.12
36192;BME280;22233;42.708;23.360;2023-02-13T07:31:59;97326.22;;;2.19;66.92
36192;BME280;22233;42.708;23.360;2023-02-13T07:34:24;97335.75;;;2.08;66.66
36192;BME280;22233;42.708;23.360;2023-02-13T07:36:50;97320.22;;;2.17;66.83
36192;BME280;22233;42.708;23.360;2023-02-13T07:39:15;97318.84;;;2.08;67.14
36192;BME280;22233;42.708;23.360;2023-02-13T07:41:41;97330.09;;;2.30;67.15
36192;BME280;22233;42.708;23.360;2023-02-13T07:44:06;97303.28;;;2.23;67.20
36192;BME280;22233;42.708;23.360;2023-02-13T07:46:32;97317.31;;;2.32;66.79
36192;BME280;22233;42.708;23.360;2023-02-13T07:48:57;97323.88;;;2.36;67.40
36192;BME280;22233;42.708;23.360;2023-02-13T07:51:22;97327.53;;;2.48;67.74
36192;BME280;22233;42.708;23.360;2023-02-13T07:53:51;97310.69;;;2.34;67.08
36192;BME280;22233;42.708;23.360;2023-02-13T07:56:17;97321.75;;;2.45;66.92
36192;BME280;22233;42.708;23.360;2023-02-13T07:58:42;97323.84;;;2.43;66.92
36192;BME280;22233;42.708;23.360;2023-02-13T08:01:10;97336.28;;;2.30;67.97
36192;BME280;22233;42.708;23.360;2023-02-13T08:03:36;97328.78;;;2.46;67.18
36192;BME280;22233;42.708;23.360;2023-02-13T08:06:03;97292.06;;;2.46;66.79
36192;BME280;22233;42.708;23.360;2023-02-13T08:08:29;97331.53;;;2.71;67.56
36192;BME280;22233;42.708;23.360;2023-02-13T08:10:55;97311.59;;;2.60;66.60
36192;BME280;22233;42.708;23.360;2023-02-13T08:13:40;97310.56;;;2.54;66.79
36192;BME280;22233;42.708;23.360;2023-02-13T08:16:06;97304.56;;;2.59;66.90
36192;BME280;22233;42.708;23.360;2023-02-13T08:18:31;97312.66;;;2.84;66.90
36192;BME280;22233;42.708;23.360;2023-02-13T08:20:56;97322.56;;;2.84;66.32
36192;BME280;22233;42.708;23.360;2023-02-13T08:23:22;97321.28;;;2.93;66.54
36192;BME280;22233;42.708;23.360;2023-02-13T08:25:47;97323.00;;;3.12;65.62
36192;BME280;22233;42.708;23.360;2023-02-13T08:28:14;97315.97;;;2.86;66.45
36192;BME280;22233;42.708;23.360;2023-02-13T08:30:40;97331.31;;;3.04;66.34
36192;BME280;22233;42.708;23.360;2023-02-13T08:33:05;97298.44;;;3.09;65.41
36192;BME280;22233;42.708;23.360;2023-02-13T08:35:31;97318.69;;;3.30;65.64
36192;BME280;22233;42.708;23.360;2023-02-13T08:38:00;97302.66;;;2.66;67.72
36192;BME280;22233;42.708;23.360;2023-02-13T08:40:26;97319.66;;;2.53;68.13
36192;BME280;22233;42.708;23.360;2023-02-13T08:42:51;97323.00;;;2.80;66.70
36192;BME280;22233;42.708;23.360;2023-02-13T08:45:17;97329.19;;;2.81;67.16
36192;BME280;22233;42.708;23.360;2023-02-13T08:47:42;97315.16;;;3.11;65.93
36192;BME280;22233;42.708;23.360;2023-02-13T08:50:08;97309.72;;;3.17;65.50
36192;BME280;22233;42.708;23.360;2023-02-13T08:52:33;97304.03;;;3.07;65.32
36192;BME280;22233;42.708;23.360;2023-02-13T08:54:59;97322.44;;;3.29;64.98
36192;BME280;22233;42.708;23.360;2023-02-13T08:57:24;97316.63;;;3.32;65.61
36192;BME280;22233;42.708;23.360;2023-02-13T08:59:50;97315.06;;;3.68;64.30
36192;BME280;22233;42.708;23.360;2023-02-13T09:02:15;97314.63;;;3.71;63.95
36192;BME280;22233;42.708;23.360;2023-02-13T09:04:40;97311.34;;;3.44;63.89
36192;BME280;22233;42.708;23.360;2023-02-13T09:07:06;97317.25;;;2.77;66.29
36192;BME280;22233;42.708;23.360;2023-02-13T09:09:31;97316.63;;;3.32;65.19
36192;BME280;22233;42.708;23.360;2023-02-13T09:11:57;97316.31;;;3.47;65.35
36192;BME280;22233;42.708;23.360;2023-02-13T09:14:23;97318.03;;;3.59;64.20
36192;BME280;22233;42.708;23.360;2023-02-13T09:16:49;97304.28;;;3.49;65.08
36192;BME280;22233;42.708;23.360;2023-02-13T09:19:14;97318.50;;;3.56;64.72
36192;BME280;22233;42.708;23.360;2023-02-13T09:21:39;97317.69;;;3.93;63.31
36192;BME280;22233;42.708;23.360;2023-02-13T09:24:09;97305.66;;;3.95;63.09
36192;BME280;22233;42.708;23.360;2023-02-13T09:26:35;97302.97;;;3.77;62.87
36192;BME280;22233;42.708;23.360;2023-02-13T09:29:00;97312.91;;;4.13;62.47
36192;BME280;22233;42.708;23.360;2023-02-13T09:31:26;97303.75;;;4.03;61.90
36192;BME280;22233;42.708;23.360;2023-02-13T09:33:52;97304.25;;;3.93;62.99
36192;BME280;22233;42.708;23.360;2023-02-13T09:36:20;97303.47;;;3.49;64.38
36192;BME280;22233;42.708;23.360;2023-02-13T09:38:47;97312.22;;;3.63;63.53
36192;BME280;22233;42.708;23.360;2023-02-13T09:41:27;97298.19;;;3.60;64.11
36192;BME280;22233;42.708;23.360;2023-02-13T09:43:58;97290.13;;;3.79;64.17
36192;BME280;22233;42.708;23.360;2023-02-13T09:48:55;97307.59;;;3.26;64.51
36192;BME280;22233;42.708;23.360;2023-02-13T09:51:23;97280.47;;;3.34;65.12
36192;BME280;22233;42.708;23.360;2023-02-13T09:53:54;97286.84;;;3.77;63.64
36192;BME280;22233;42.708;23.360;2023-02-13T10:01:48;97260.88;;;3.27;65.45
36192;BME280;22233;42.708;23.360;2023-02-13T10:04:25;97278.09;;;3.19;65.69
36192;BME280;22233;42.708;23.360;2023-02-13T10:09:46;97265.47;;;3.82;64.91
36192;BME280;22233;42.708;23.360;2023-02-13T10:17:44;97241.69;;;4.16;63.45
36192;BME280;22233;42.708;23.360;2023-02-13T10:20:35;97234.16;;;4.06;63.85
36192;BME280;22233;42.708;23.360;2023-02-13T10:23:16;97239.09;;;4.09;64.13
36192;BME280;22233;42.708;23.360;2023-02-13T10:28:16;97235.34;;;4.40;62.22
36192;BME280;22233;42.708;23.360;2023-02-13T10:31:13;97218.06;;;4.48;62.31
36192;BME280;22233;42.708;23.360;2023-02-13T10:33:49;97228.16;;;4.53;62.18
36192;BME280;22233;42.708;23.360;2023-02-13T10:36:18;97211.00;;;4.77;60.68
36192;BME280;22233;42.708;23.360;2023-02-13T10:39:08;97214.91;;;5.29;60.49
36192;BME280;22233;42.708;23.360;2023-02-13T10:44:24;97208.09;;;5.14;60.24
36192;BME280;22233;42.708;23.360;2023-02-13T11:00:33;97186.41;;;6.09;56.40
36192;BME280;22233;42.708;23.360;2023-02-13T11:03:00;97180.56;;;6.00;56.32
36192;BME280;22233;42.708;23.360;2023-02-13T11:05:37;97179.69;;;5.71;56.95
36192;BME280;22233;42.708;23.360;2023-02-13T11:10:42;97150.41;;;5.63;56.98
36192;BME280;22233;42.708;23.360;2023-02-13T11:13:18;97152.72;;;5.71;57.33
36192;BME280;22233;42.708;23.360;2023-02-13T11:18:22;97151.63;;;6.24;56.20
36192;BME280;22233;42.708;23.360;2023-02-13T11:21:42;97146.16;;;6.53;56.11
36192;BME280;22233;42.708;23.360;2023-02-13T11:23:44;97129.72;;;6.54;54.96
36192;BME280;22233;42.708;23.360;2023-02-13T11:26:11;97133.66;;;6.80;54.26
36192;BME280;22233;42.708;23.360;2023-02-13T11:28:47;97138.69;;;7.11;53.55
36192;BME280;22233;42.708;23.360;2023-02-13T11:33:39;97104.34;;;6.72;54.72
36192;BME280;22233;42.708;23.360;2023-02-13T11:36:08;97119.41;;;7.24;53.35
36192;BME280;22233;42.708;23.360;2023-02-13T11:38:34;97104.50;;;7.22;53.48
36192;BME280;22233;42.708;23.360;2023-02-13T11:41:11;97105.28;;;7.39;52.81
36192;BME280;22233;42.708;23.360;2023-02-13T11:43:52;97106.66;;;7.64;51.33
36192;BME280;22233;42.708;23.360;2023-02-13T11:46:22;97095.38;;;7.94;50.57
36192;BME280;22233;42.708;23.360;2023-02-13T11:49:03;97092.91;;;7.92;49.47
36192;BME280;22233;42.708;23.360;2023-02-13T11:51:50;97085.41;;;7.99;49.18
36192;BME280;22233;42.708;23.360;2023-02-13T11:57:03;97059.41;;;7.98;48.52
36192;BME280;22233;42.708;23.360;2023-02-13T11:59:43;97062.66;;;7.95;48.37
36192;BME280;22233;42.708;23.360;2023-02-13T12:02:28;97070.38;;;7.59;49.17
36192;BME280;22233;42.708;23.360;2023-02-13T12:05:20;97052.13;;;7.50;48.40
36192;BME280;22233;42.708;23.360;2023-02-13T12:07:47;97043.22;;;7.49;48.39
36192;BME280;22233;42.708;23.360;2023-02-13T12:10:29;97049.00;;;7.58;48.59
36192;BME280;22233;42.708;23.360;2023-02-13T12:15:36;97041.69;;;8.77;46.27
36192;BME280;22233;42.708;23.360;2023-02-13T12:20:55;97033.69;;;8.60;46.55
36192;BME280;22233;42.708;23.360;2023-02-13T12:23:41;97043.78;;;8.70;45.92
36192;BME280;22233;42.708;23.360;2023-02-13T12:28:41;97037.78;;;9.11;43.21
36192;BME280;22233;42.708;23.360;2023-02-13T12:39:34;97030.06;;;9.45;42.28
36192;BME280;22233;42.708;23.360;2023-02-13T12:42:36;97018.66;;;9.43;41.99
36192;BME280;22233;42.708;23.360;2023-02-13T12:45:36;97015.47;;;9.62;40.98
36192;BME280;22233;42.708;23.360;2023-02-13T12:48:23;97016.06;;;9.74;40.92
36192;BME280;22233;42.708;23.360;2023-02-13T12:51:18;97004.91;;;9.60;41.13
36192;BME280;22233;42.708;23.360;2023-02-13T12:59:39;97001.97;;;9.97;40.65
36192;BME280;22233;42.708;23.360;2023-02-13T13:02:37;97000.81;;;9.57;40.95
36192;BME280;22233;42.708;23.360;2023-02-13T13:05:23;96989.22;;;10.08;38.93
36192;BME280;22233;42.708;23.360;2023-02-13T13:14:03;96967.44;;;9.52;40.94
36192;BME280;22233;42.708;23.360;2023-02-13T13:21:56;96981.31;;;9.71;41.17
36192;BME280;22233;42.708;23.360;2023-02-13T13:27:24;96978.09;;;9.99;40.46
36192;BME280;22233;42.708;23.360;2023-02-13T13:29:57;96937.09;;;9.91;39.77
36192;BME280;22233;42.708;23.360;2023-02-13T13:32:25;96975.91;;;10.22;39.23
36192;BME280;22233;42.708;23.360;2023-02-13T13:34:51;96948.78;;;10.32;39.42
36192;BME280;22233;42.708;23.360;2023-02-13T13:40:54;96976.19;;;9.85;40.93
36192;BME280;22233;42.708;23.360;2023-02-13T13:42:59;96990.31;;;9.97;40.62
36192;BME280;22233;42.708;23.360;2023-02-13T13:50:48;96959.09;;;9.84;41.79
36192;BME280;22233;42.708;23.360;2023-02-13T13:53:19;96950.94;;;9.89;40.64
36192;BME280;22233;42.708;23.360;2023-02-13T14:03:44;96978.63;;;10.17;40.73
36192;BME280;22233;42.708;23.360;2023-02-13T14:06:15;96961.50;;;9.86;41.55
36192;BME280;22233;42.708;23.360;2023-02-13T14:13:59;96940.88;;;10.36;39.80
36192;BME280;22233;42.708;23.360;2023-02-13T14:16:41;96943.31;;;10.12;40.87
36192;BME280;22233;42.708;23.360;2023-02-13T14:21:55;96944.97;;;10.44;40.11
36192;BME280;22233;42.708;23.360;2023-02-13T14:24:39;96954.16;;;10.58;40.74
36192;BME280;22233;42.708;23.360;2023-02-13T14:27:21;96944.69;;;10.14;40.77
36192;BME280;22233;42.708;23.360;2023-02-13T14:29:47;96943.81;;;9.42;43.10
36192;BME280;22233;42.708;23.360;2023-02-13T14:32:18;96923.50;;;9.86;41.61
36192;BME280;22233;42.708;23.360;2023-02-13T14:34:55;96942.78;;;9.89;42.36
36192;BME280;22233;42.708;23.360;2023-02-13T14:37:27;96924.06;;;9.77;42.20
36192;BME280;22233;42.708;23.360;2023-02-13T14:42:54;96934.84;;;9.36;42.51
36192;BME280;22233;42.708;23.360;2023-02-13T14:45:27;96924.53;;;9.44;43.79
36192;BME280;22233;42.708;23.360;2023-02-13T14:47:55;96924.56;;;9.38;43.04
36192;BME280;22233;42.708;23.360;2023-02-13T14:50:49;96928.66;;;9.46;43.48
36192;BME280;22233;42.708;23.360;2023-02-13T14:53:58;96939.47;;;9.41;43.19
36192;BME280;22233;42.708;23.360;2023-02-13T14:56:25;96915.53;;;9.17;43.44
36192;BME280;22233;42.708;23.360;2023-02-13T14:58:54;96928.06;;;9.34;43.01
36192;BME280;22233;42.708;23.360;2023-02-13T15:01:34;96922.97;;;8.74;44.07
36192;BME280;22233;42.708;23.360;2023-02-13T15:04:15;96937.81;;;9.19;43.50
36192;BME280;22233;42.708;23.360;2023-02-13T15:06:43;96915.56;;;9.23;43.45
36192;BME280;22233;42.708;23.360;2023-02-13T15:09:23;96922.53;;;9.03;43.04
36192;BME280;22233;42.708;23.360;2023-02-13T15:11:50;96925.59;;;9.22;43.01
36192;BME280;22233;42.708;23.360;2023-02-13T15:17:02;96927.34;;;8.75;44.66
36192;BME280;22233;42.708;23.360;2023-02-13T15:19:31;96917.47;;;8.54;44.73
36192;BME280;22233;42.708;23.360;2023-02-13T15:22:01;96916.88;;;8.47;44.13
36192;BME280;22233;42.708;23.360;2023-02-13T15:24:45;96930.31;;;8.79;44.33
36192;BME280;22233;42.708;23.360;2023-02-13T15:27:19;96934.66;;;8.80;43.83
36192;BME280;22233;42.708;23.360;2023-02-13T15:32:27;96925.50;;;8.01;45.44
36192;BME280;22233;42.708;23.360;2023-02-13T15:34:53;96934.13;;;7.98;46.15
36192;BME280;22233;42.708;23.360;2023-02-13T15:37:26;96934.69;;;8.00;45.57
36192;BME280;22233;42.708;23.360;2023-02-13T15:39:52;96930.56;;;7.92;45.70
36192;BME280;22233;42.708;23.360;2023-02-13T15:42:18;96927.47;;;7.78;46.43
36192;BME280;22233;42.708;23.360;2023-02-13T15:44:48;96931.47;;;7.71;46.23
36192;BME280;22233;42.708;23.360;2023-02-13T15:47:27;96945.56;;;7.46;46.43
36192;BME280;22233;42.708;23.360;2023-02-13T15:49:53;96943.75;;;7.56;46.81
36192;BME280;22233;42.708;23.360;2023-02-13T15:52:35;96938.78;;;6.72;48.29
36192;BME280;22233;42.708;23.360;2023-02-13T15:55:02;96949.13;;;7.02;47.47